sensor_id;sensor_type;location;lat;lon;timestamp;P1;durP1;ratioP1;P2;durP2;ratioP2
37657;SDS011;23500;53.268;8.308;2023-05-10T00:00:57;3.67;;;3.38;;
37657;SDS011;23500;53.268;8.308;2023-05-10T00:03:22;3.65;;;3.35;;
37657;SDS011;23500;53.268;8.308;2023-05-10T00:05:48;3.75;;;3.45;;
37657;SDS011;23500;53.268;8.308;2023-05-10T00:08:14;3.90;;;3.60;;
37657;SDS011;23500;53.268;8.308;2023-05-10T00:10:39;3.92;;;3.50;;
37657;SDS011;23500;53.268;8.308;2023-05-10T00:13:06;3.63;;;3.33;;
37657;SDS011;23500;53.268;8.308;2023-05-10T00:15:31;4.00;;;3.70;;
37657;SDS011;23500;53.268;8.308;2023-05-10T00:17:57;3.80;;;3.50;;
37657;SDS011;23500;53.268;8.308;2023-05-10T00:20:23;3.28;;;2.97;;
37657;SDS011;23500;53.268;8.308;2023-05-10T00:22:49;3.83;;;3.50;;
37657;SDS011;23500;53.268;8.308;2023-05-10T00:25:14;3.90;;;3.60;;
37657;SDS011;23500;53.268;8.308;2023-05-10T00:27:40;3.78;;;3.47;;
37657;SDS011;23500;53.268;8.308;2023-05-10T00:30:06;4.00;;;3.45;;
37657;SDS011;23500;53.268;8.308;2023-05-10T00:32:32;3.75;;;3.45;;
37657;SDS011;23500;53.268;8.308;2023-05-10T00:34:58;3.63;;;3.33;;
37657;SDS011;23500;53.268;8.308;2023-05-10T00:37:23;3.65;;;3.35;;
37657;SDS011;23500;53.268;8.308;2023-05-10T00:39:49;3.72;;;3.42;;
37657;SDS011;23500;53.268;8.308;2023-05-10T00:42:15;4.28;;;3.88;;
37657;SDS011;23500;53.268;8.308;2023-05-10T00:44:41;3.97;;;3.65;;
37657;SDS011;23500;53.268;8.308;2023-05-10T00:47:06;3.67;;;3.38;;
37657;SDS011;23500;53.268;8.308;2023-05-10T00:49:32;4.30;;;3.90;;
37657;SDS011;23500;53.268;8.308;2023-05-10T00:51:59;3.60;;;3.30;;
37657;SDS011;23500;53.268;8.308;2023-05-10T00:54:25;3.97;;;3.60;;
37657;SDS011;23500;53.268;8.308;2023-05-10T00:56:51;3.53;;;3.22;;
37657;SDS011;23500;53.268;8.308;2023-05-10T00:59:16;4.22;;;3.80;;
37657;SDS011;23500;53.268;8.308;2023-05-10T01:01:46;4.13;;;3.50;;
37657;SDS011;23500;53.268;8.308;2023-05-10T01:04:12;3.63;;;3.33;;
37657;SDS011;23500;53.268;8.308;2023-05-10T01:06:39;3.67;;;3.38;;
37657;SDS011;23500;53.268;8.308;2023-05-10T01:09:05;3.45;;;3.20;;
37657;SDS011;23500;53.268;8.308;2023-05-10T01:11:32;3.65;;;3.35;;
37657;SDS011;23500;53.268;8.308;2023-05-10T01:14:00;3.67;;;3.38;;
37657;SDS011;23500;53.268;8.308;2023-05-10T01:16:26;4.55;;;3.58;;
37657;SDS011;23500;53.268;8.308;2023-05-10T01:18:53;3.67;;;3.38;;
37657;SDS011;23500;53.268;8.308;2023-05-10T01:21:33;3.90;;;3.55;;
37657;SDS011;23500;53.268;8.308;2023-05-10T01:24:23;3.92;;;3.63;;
37657;SDS011;23500;53.268;8.308;2023-05-10T01:30:15;3.63;;;3.33;;
37657;SDS011;23500;53.268;8.308;2023-05-10T01:35:42;3.15;;;2.95;;
37657;SDS011;23500;53.268;8.308;2023-05-10T01:38:22;4.20;;;3.78;;
37657;SDS011;23500;53.268;8.308;2023-05-10T01:43:54;3.67;;;3.38;;
37657;SDS011;23500;53.268;8.308;2023-05-10T01:47:11;3.95;;;3.58;;
37657;SDS011;23500;53.268;8.308;2023-05-10T01:50:02;3.72;;;3.35;;
37657;SDS011;23500;53.268;8.308;2023-05-10T01:52:35;3.90;;;3.45;;
37657;SDS011;23500;53.268;8.308;2023-05-10T01:55:07;4.10;;;3.70;;
37657;SDS011;23500;53.268;8.308;2023-05-10T01:57:38;4.00;;;3.70;;
37657;SDS011;23500;53.268;8.308;2023-05-10T02:00:07;3.55;;;3.25;;
37657;SDS011;23500;53.268;8.308;2023-05-10T02:02:37;3.83;;;3.42;;
37657;SDS011;23500;53.268;8.308;2023-05-10T02:05:07;4.22;;;3.80;;
37657;SDS011;23500;53.268;8.308;2023-05-10T02:07:34;3.53;;;3.22;;
37657;SDS011;23500;53.268;8.308;2023-05-10T02:10:01;3.78;;;3.47;;
37657;SDS011;23500;53.268;8.308;2023-05-10T02:12:29;3.65;;;3.30;;
37657;SDS011;23500;53.268;8.308;2023-05-10T02:14:59;3.53;;;3.22;;
37657;SDS011;23500;53.268;8.308;2023-05-10T02:17:27;4.68;;;3.65;;
37657;SDS011;23500;53.268;8.308;2023-05-10T02:19:55;3.70;;;3.40;;
37657;SDS011;23500;53.268;8.308;2023-05-10T02:22:22;3.72;;;3.42;;
37657;SDS011;23500;53.268;8.308;2023-05-10T02:24:49;3.63;;;3.33;;
37657;SDS011;23500;53.268;8.308;2023-05-10T02:27:15;3.45;;;3.15;;
37657;SDS011;23500;53.268;8.308;2023-05-10T02:29:44;3.88;;;3.58;;
37657;SDS011;23500;53.268;8.308;2023-05-10T02:32:11;3.60;;;3.30;;
37657;SDS011;23500;53.268;8.308;2023-05-10T02:34:38;3.92;;;3.60;;
37657;SDS011;23500;53.268;8.308;2023-05-10T02:37:05;4.18;;;3.78;;
37657;SDS011;23500;53.268;8.308;2023-05-10T02:39:32;3.92;;;3.53;;
37657;SDS011;23500;53.268;8.308;2023-05-10T02:41:58;3.67;;;3.38;;
37657;SDS011;23500;53.268;8.308;2023-05-10T02:44:25;3.67;;;3.38;;
37657;SDS011;23500;53.268;8.308;2023-05-10T02:46:53;3.53;;;3.22;;
37657;SDS011;23500;53.268;8.308;2023-05-10T02:49:20;3.45;;;3.22;;
37657;SDS011;23500;53.268;8.308;2023-05-10T02:51:47;4.00;;;3.47;;
37657;SDS011;23500;53.268;8.308;2023-05-10T02:54:24;3.85;;;3.47;;
37657;SDS011;23500;53.268;8.308;2023-05-10T02:56:56;3.40;;;3.13;;
37657;SDS011;23500;53.268;8.308;2023-05-10T02:59:25;3.70;;;3.40;;
37657;SDS011;23500;53.268;8.308;2023-05-10T03:01:51;3.80;;;3.50;;
37657;SDS011;23500;53.268;8.308;2023-05-10T03:04:17;4.18;;;3.85;;
37657;SDS011;23500;53.268;8.308;2023-05-10T03:06:43;4.00;;;3.67;;
37657;SDS011;23500;53.268;8.308;2023-05-10T03:09:09;4.15;;;3.78;;
37657;SDS011;23500;53.268;8.308;2023-05-10T03:17:00;3.75;;;3.45;;
37657;SDS011;23500;53.268;8.308;2023-05-10T03:19:53;3.83;;;3.50;;
37657;SDS011;23500;53.268;8.308;2023-05-10T03:22:24;3.28;;;3.08;;
37657;SDS011;23500;53.268;8.308;2023-05-10T03:24:55;3.55;;;3.30;;
37657;SDS011;23500;53.268;8.308;2023-05-10T03:27:25;3.50;;;3.20;;
37657;SDS011;23500;53.268;8.308;2023-05-10T03:29:53;3.75;;;3.45;;
37657;SDS011;23500;53.268;8.308;2023-05-10T03:32:19;3.25;;;2.95;;
37657;SDS011;23500;53.268;8.308;2023-05-10T03:34:45;3.70;;;3.40;;
37657;SDS011;23500;53.268;8.308;2023-05-10T03:37:11;3.45;;;3.25;;
37657;SDS011;23500;53.268;8.308;2023-05-10T03:39:36;3.95;;;3.50;;
37657;SDS011;23500;53.268;8.308;2023-05-10T03:42:02;3.55;;;3.25;;
37657;SDS011;23500;53.268;8.308;2023-05-10T03:44:28;3.53;;;3.22;;
37657;SDS011;23500;53.268;8.308;2023-05-10T03:46:53;4.18;;;3.13;;
37657;SDS011;23500;53.268;8.308;2023-05-10T03:49:20;3.63;;;3.33;;
37657;SDS011;23500;53.268;8.308;2023-05-10T03:51:45;3.78;;;3.47;;
37657;SDS011;23500;53.268;8.308;2023-05-10T03:54:11;3.97;;;3.47;;
37657;SDS011;23500;53.268;8.308;2023-05-10T03:56:37;3.40;;;3.10;;
37657;SDS011;23500;53.268;8.308;2023-05-10T03:59:02;3.53;;;3.22;;
37657;SDS011;23500;53.268;8.308;2023-05-10T04:01:32;3.55;;;3.25;;
37657;SDS011;23500;53.268;8.308;2023-05-10T04:03:58;3.53;;;3.20;;
37657;SDS011;23500;53.268;8.308;2023-05-10T04:06:24;3.25;;;3.05;;
37657;SDS011;23500;53.268;8.308;2023-05-10T04:08:49;3.50;;;3.20;;
37657;SDS011;23500;53.268;8.308;2023-05-10T04:11:15;3.63;;;3.33;;
37657;SDS011;23500;53.268;8.308;2023-05-10T04:13:41;3.55;;;3.25;;
37657;SDS011;23500;53.268;8.308;2023-05-10T04:16:08;3.50;;;3.20;;
37657;SDS011;23500;53.268;8.308;2023-05-10T04:18:34;3.65;;;3.38;;
37657;SDS011;23500;53.268;8.308;2023-05-10T04:21:00;4.05;;;3.65;;
37657;SDS011;23500;53.268;8.308;2023-05-10T04:23:26;3.50;;;3.20;;
37657;SDS011;23500;53.268;8.308;2023-05-10T04:25:52;3.33;;;3.08;;
37657;SDS011;23500;53.268;8.308;2023-05-10T04:28:23;3.08;;;2.88;;
37657;SDS011;23500;53.268;8.308;2023-05-10T04:30:49;3.42;;;3.13;;
37657;SDS011;23500;53.268;8.308;2023-05-10T04:33:14;3.45;;;3.15;;
37657;SDS011;23500;53.268;8.308;2023-05-10T04:35:40;3.03;;;2.83;;
37657;SDS011;23500;53.268;8.308;2023-05-10T04:38:06;3.22;;;2.92;;
37657;SDS011;23500;53.268;8.308;2023-05-10T04:40:32;3.50;;;3.20;;
37657;SDS011;23500;53.268;8.308;2023-05-10T04:42:57;3.70;;;3.40;;
37657;SDS011;23500;53.268;8.308;2023-05-10T04:45:23;3.50;;;3.20;;
37657;SDS011;23500;53.268;8.308;2023-05-10T04:47:48;3.55;;;3.25;;
37657;SDS011;23500;53.268;8.308;2023-05-10T04:50:14;3.80;;;3.50;;
37657;SDS011;23500;53.268;8.308;2023-05-10T04:52:40;3.53;;;3.20;;
37657;SDS011;23500;53.268;8.308;2023-05-10T04:55:06;3.60;;;3.30;;
37657;SDS011;23500;53.268;8.308;2023-05-10T04:57:34;4.72;;;3.50;;
37657;SDS011;23500;53.268;8.308;2023-05-10T05:00:00;5.35;;;3.80;;
37657;SDS011;23500;53.268;8.308;2023-05-10T05:02:25;5.20;;;3.47;;
37657;SDS011;23500;53.268;8.308;2023-05-10T05:04:51;4.45;;;3.60;;
37657;SDS011;23500;53.268;8.308;2023-05-10T05:07:17;5.63;;;3.42;;
37657;SDS011;23500;53.268;8.308;2023-05-10T05:09:42;5.07;;;3.63;;
37657;SDS011;23500;53.268;8.308;2023-05-10T05:12:08;6.85;;;3.78;;
37657;SDS011;23500;53.268;8.308;2023-05-10T05:14:38;4.78;;;3.63;;
37657;SDS011;23500;53.268;8.308;2023-05-10T05:17:05;6.30;;;4.05;;
37657;SDS011;23500;53.268;8.308;2023-05-10T05:19:31;5.90;;;4.13;;
37657;SDS011;23500;53.268;8.308;2023-05-10T05:21:56;8.77;;;3.92;;
37657;SDS011;23500;53.268;8.308;2023-05-10T05:24:22;6.07;;;3.92;;
37657;SDS011;23500;53.268;8.308;2023-05-10T05:26:48;6.05;;;3.85;;
37657;SDS011;23500;53.268;8.308;2023-05-10T05:29:13;5.43;;;4.10;;
37657;SDS011;23500;53.268;8.308;2023-05-10T05:31:39;7.75;;;4.05;;
37657;SDS011;23500;53.268;8.308;2023-05-10T05:34:05;8.52;;;4.55;;
37657;SDS011;23500;53.268;8.308;2023-05-10T05:36:30;8.02;;;4.65;;
37657;SDS011;23500;53.268;8.308;2023-05-10T05:38:56;5.55;;;4.13;;
37657;SDS011;23500;53.268;8.308;2023-05-10T05:41:22;9.55;;;4.38;;
37657;SDS011;23500;53.268;8.308;2023-05-10T05:43:49;8.43;;;4.80;;
37657;SDS011;23500;53.268;8.308;2023-05-10T05:46:15;8.25;;;4.75;;
37657;SDS011;23500;53.268;8.308;2023-05-10T05:48:40;10.30;;;4.70;;
37657;SDS011;23500;53.268;8.308;2023-05-10T05:51:06;8.90;;;4.65;;
37657;SDS011;23500;53.268;8.308;2023-05-10T05:53:32;10.35;;;4.70;;
37657;SDS011;23500;53.268;8.308;2023-05-10T05:55:57;10.48;;;5.18;;
37657;SDS011;23500;53.268;8.308;2023-05-10T05:58:24;10.60;;;4.72;;
37657;SDS011;23500;53.268;8.308;2023-05-10T06:00:50;10.75;;;4.88;;
37657;SDS011;23500;53.268;8.308;2023-05-10T06:03:19;12.40;;;5.50;;
37657;SDS011;23500;53.268;8.308;2023-05-10T06:05:45;9.15;;;4.88;;
37657;SDS011;23500;53.268;8.308;2023-05-10T06:08:11;8.55;;;4.80;;
37657;SDS011;23500;53.268;8.308;2023-05-10T06:10:37;12.13;;;5.28;;
37657;SDS011;23500;53.268;8.308;2023-05-10T06:13:03;8.82;;;5.00;;
37657;SDS011;23500;53.268;8.308;2023-05-10T06:15:29;11.35;;;5.32;;
37657;SDS011;23500;53.268;8.308;2023-05-10T06:17:54;9.68;;;5.30;;
37657;SDS011;23500;53.268;8.308;2023-05-10T06:20:20;10.30;;;4.97;;
37657;SDS011;23500;53.268;8.308;2023-05-10T06:22:46;11.88;;;5.40;;
37657;SDS011;23500;53.268;8.308;2023-05-10T06:25:11;10.75;;;5.22;;
37657;SDS011;23500;53.268;8.308;2023-05-10T06:27:37;9.80;;;5.15;;
37657;SDS011;23500;53.268;8.308;2023-05-10T06:30:03;10.35;;;5.55;;
37657;SDS011;23500;53.268;8.308;2023-05-10T06:32:30;11.93;;;5.70;;
37657;SDS011;23500;53.268;8.308;2023-05-10T06:34:56;10.85;;;5.60;;
37657;SDS011;23500;53.268;8.308;2023-05-10T06:37:21;10.45;;;5.28;;
37657;SDS011;23500;53.268;8.308;2023-05-10T06:39:47;11.90;;;6.15;;
37657;SDS011;23500;53.268;8.308;2023-05-10T06:42:13;11.68;;;5.55;;
37657;SDS011;23500;53.268;8.308;2023-05-10T06:44:39;9.77;;;5.47;;
37657;SDS011;23500;53.268;8.308;2023-05-10T06:47:04;9.27;;;5.00;;
37657;SDS011;23500;53.268;8.308;2023-05-10T06:49:30;11.77;;;6.07;;
37657;SDS011;23500;53.268;8.308;2023-05-10T06:51:56;12.05;;;5.60;;
37657;SDS011;23500;53.268;8.308;2023-05-10T06:54:21;12.73;;;5.70;;
37657;SDS011;23500;53.268;8.308;2023-05-10T06:56:48;9.45;;;5.55;;
37657;SDS011;23500;53.268;8.308;2023-05-10T06:59:13;11.85;;;6.00;;
37657;SDS011;23500;53.268;8.308;2023-05-10T07:01:41;11.18;;;5.80;;
37657;SDS011;23500;53.268;8.308;2023-05-10T07:04:07;11.88;;;5.95;;
37657;SDS011;23500;53.268;8.308;2023-05-10T07:06:33;11.75;;;5.72;;
37657;SDS011;23500;53.268;8.308;2023-05-10T07:08:59;9.68;;;5.72;;
37657;SDS011;23500;53.268;8.308;2023-05-10T07:11:25;10.70;;;5.32;;
37657;SDS011;23500;53.268;8.308;2023-05-10T07:13:51;13.68;;;5.57;;
37657;SDS011;23500;53.268;8.308;2023-05-10T07:16:17;11.85;;;6.00;;
37657;SDS011;23500;53.268;8.308;2023-05-10T07:18:43;10.63;;;5.53;;
37657;SDS011;23500;53.268;8.308;2023-05-10T07:21:09;12.27;;;5.90;;
37657;SDS011;23500;53.268;8.308;2023-05-10T07:23:34;10.52;;;5.20;;
37657;SDS011;23500;53.268;8.308;2023-05-10T07:26:00;13.07;;;5.80;;
37657;SDS011;23500;53.268;8.308;2023-05-10T07:28:27;11.57;;;5.28;;
37657;SDS011;23500;53.268;8.308;2023-05-10T07:30:52;9.55;;;5.57;;
37657;SDS011;23500;53.268;8.308;2023-05-10T07:33:18;11.38;;;5.63;;
37657;SDS011;23500;53.268;8.308;2023-05-10T07:35:44;12.27;;;6.45;;
37657;SDS011;23500;53.268;8.308;2023-05-10T07:38:10;10.73;;;5.88;;
37657;SDS011;23500;53.268;8.308;2023-05-10T07:40:36;9.18;;;5.10;;
37657;SDS011;23500;53.268;8.308;2023-05-10T07:43:01;10.98;;;5.43;;
37657;SDS011;23500;53.268;8.308;2023-05-10T07:45:27;10.48;;;5.63;;
37657;SDS011;23500;53.268;8.308;2023-05-10T07:47:53;11.35;;;5.80;;
37657;SDS011;23500;53.268;8.308;2023-05-10T07:50:19;9.95;;;5.25;;
37657;SDS011;23500;53.268;8.308;2023-05-10T07:52:46;11.05;;;5.53;;
37657;SDS011;23500;53.268;8.308;2023-05-10T07:55:12;9.68;;;5.45;;
37657;SDS011;23500;53.268;8.308;2023-05-10T07:57:37;10.95;;;5.40;;
37657;SDS011;23500;53.268;8.308;2023-05-10T08:00:04;9.23;;;5.07;;
37657;SDS011;23500;53.268;8.308;2023-05-10T08:02:30;11.43;;;5.82;;
37657;SDS011;23500;53.268;8.308;2023-05-10T08:04:56;11.48;;;5.53;;
37657;SDS011;23500;53.268;8.308;2023-05-10T08:07:22;9.63;;;5.10;;
37657;SDS011;23500;53.268;8.308;2023-05-10T08:09:49;9.73;;;5.65;;
37657;SDS011;23500;53.268;8.308;2023-05-10T08:12:15;8.90;;;5.50;;
37657;SDS011;23500;53.268;8.308;2023-05-10T08:14:40;11.73;;;5.50;;
37657;SDS011;23500;53.268;8.308;2023-05-10T08:17:06;10.90;;;5.35;;
37657;SDS011;23500;53.268;8.308;2023-05-10T08:19:32;10.73;;;5.30;;
37657;SDS011;23500;53.268;8.308;2023-05-10T08:21:57;11.45;;;5.50;;
37657;SDS011;23500;53.268;8.308;2023-05-10T08:24:23;8.60;;;5.38;;
37657;SDS011;23500;53.268;8.308;2023-05-10T08:26:49;11.63;;;5.60;;
37657;SDS011;23500;53.268;8.308;2023-05-10T08:29:14;8.68;;;5.03;;
37657;SDS011;23500;53.268;8.308;2023-05-10T08:31:40;9.98;;;5.20;;
37657;SDS011;23500;53.268;8.308;2023-05-10T08:34:06;10.38;;;4.85;;
37657;SDS011;23500;53.268;8.308;2023-05-10T08:36:32;8.07;;;4.50;;
37657;SDS011;23500;53.268;8.308;2023-05-10T08:38:58;10.40;;;5.28;;
37657;SDS011;23500;53.268;8.308;2023-05-10T08:41:24;9.70;;;5.40;;
37657;SDS011;23500;53.268;8.308;2023-05-10T08:43:50;10.13;;;5.43;;
37657;SDS011;23500;53.268;8.308;2023-05-10T08:46:17;8.45;;;5.15;;
37657;SDS011;23500;53.268;8.308;2023-05-10T08:48:44;8.80;;;5.15;;
37657;SDS011;23500;53.268;8.308;2023-05-10T08:51:15;11.02;;;4.78;;
37657;SDS011;23500;53.268;8.308;2023-05-10T08:53:43;8.27;;;4.90;;
37657;SDS011;23500;53.268;8.308;2023-05-10T08:56:10;8.75;;;4.30;;
37657;SDS011;23500;53.268;8.308;2023-05-10T08:58:40;8.85;;;4.47;;
37657;SDS011;23500;53.268;8.308;2023-05-10T09:01:07;9.52;;;5.05;;
37657;SDS011;23500;53.268;8.308;2023-05-10T09:03:34;10.20;;;5.10;;
37657;SDS011;23500;53.268;8.308;2023-05-10T09:06:02;9.93;;;5.38;;
37657;SDS011;23500;53.268;8.308;2023-05-10T09:08:28;9.18;;;4.60;;
37657;SDS011;23500;53.268;8.308;2023-05-10T09:10:55;6.95;;;4.22;;
37657;SDS011;23500;53.268;8.308;2023-05-10T09:13:22;6.97;;;4.47;;
37657;SDS011;23500;53.268;8.308;2023-05-10T09:15:49;8.70;;;4.20;;
37657;SDS011;23500;53.268;8.308;2023-05-10T09:18:15;7.53;;;4.53;;
37657;SDS011;23500;53.268;8.308;2023-05-10T09:20:41;8.75;;;4.50;;
37657;SDS011;23500;53.268;8.308;2023-05-10T09:23:07;7.85;;;4.57;;
37657;SDS011;23500;53.268;8.308;2023-05-10T09:25:33;6.50;;;4.60;;
37657;SDS011;23500;53.268;8.308;2023-05-10T09:27:59;7.32;;;4.30;;
37657;SDS011;23500;53.268;8.308;2023-05-10T09:30:25;6.88;;;4.22;;
37657;SDS011;23500;53.268;8.308;2023-05-10T09:32:53;7.22;;;4.25;;
37657;SDS011;23500;53.268;8.308;2023-05-10T09:35:20;8.80;;;4.55;;
37657;SDS011;23500;53.268;8.308;2023-05-10T09:37:51;8.07;;;4.65;;
37657;SDS011;23500;53.268;8.308;2023-05-10T09:40:22;8.45;;;4.35;;
37657;SDS011;23500;53.268;8.308;2023-05-10T09:45:20;8.18;;;4.22;;
37657;SDS011;23500;53.268;8.308;2023-05-10T09:47:46;7.70;;;3.90;;
37657;SDS011;23500;53.268;8.308;2023-05-10T09:50:13;7.50;;;4.22;;
37657;SDS011;23500;53.268;8.308;2023-05-10T09:58:11;7.38;;;4.60;;
37657;SDS011;23500;53.268;8.308;2023-05-10T10:00:41;6.00;;;3.95;;
37657;SDS011;23500;53.268;8.308;2023-05-10T10:03:15;6.90;;;3.65;;
37657;SDS011;23500;53.268;8.308;2023-05-10T10:05:42;8.07;;;4.57;;
37657;SDS011;23500;53.268;8.308;2023-05-10T10:08:09;7.05;;;3.70;;
37657;SDS011;23500;53.268;8.308;2023-05-10T10:10:35;6.97;;;3.53;;
37657;SDS011;23500;53.268;8.308;2023-05-10T10:13:01;6.70;;;4.15;;
37657;SDS011;23500;53.268;8.308;2023-05-10T10:15:27;6.65;;;3.92;;
37657;SDS011;23500;53.268;8.308;2023-05-10T10:17:53;6.45;;;3.50;;
37657;SDS011;23500;53.268;8.308;2023-05-10T10:20:20;7.80;;;4.32;;
37657;SDS011;23500;53.268;8.308;2023-05-10T10:22:47;6.55;;;3.75;;
37657;SDS011;23500;53.268;8.308;2023-05-10T10:25:14;4.43;;;3.42;;
37657;SDS011;23500;53.268;8.308;2023-05-10T10:36:05;5.85;;;3.92;;
37657;SDS011;23500;53.268;8.308;2023-05-10T10:38:37;5.85;;;3.95;;
37657;SDS011;23500;53.268;8.308;2023-05-10T10:49:45;5.65;;;3.28;;
37657;SDS011;23500;53.268;8.308;2023-05-10T10:54:59;6.50;;;3.90;;
37657;SDS011;23500;53.268;8.308;2023-05-10T11:05:23;6.28;;;3.20;;
37657;SDS011;23500;53.268;8.308;2023-05-10T11:07:53;6.22;;;3.95;;
37657;SDS011;23500;53.268;8.308;2023-05-10T11:10:22;4.78;;;3.30;;
37657;SDS011;23500;53.268;8.308;2023-05-10T11:13:01;6.10;;;3.30;;
37657;SDS011;23500;53.268;8.308;2023-05-10T11:15:31;5.47;;;3.53;;
37657;SDS011;23500;53.268;8.308;2023-05-10T11:17:58;5.20;;;3.35;;
37657;SDS011;23500;53.268;8.308;2023-05-10T11:20:28;5.22;;;3.33;;
37657;SDS011;23500;53.268;8.308;2023-05-10T11:23:00;5.82;;;3.30;;
37657;SDS011;23500;53.268;8.308;2023-05-10T11:25:40;6.80;;;3.65;;
37657;SDS011;23500;53.268;8.308;2023-05-10T11:28:08;6.32;;;3.55;;
37657;SDS011;23500;53.268;8.308;2023-05-10T11:30:34;5.00;;;3.22;;
37657;SDS011;23500;53.268;8.308;2023-05-10T11:33:00;4.50;;;3.15;;
37657;SDS011;23500;53.268;8.308;2023-05-10T11:35:27;4.88;;;3.40;;
37657;SDS011;23500;53.268;8.308;2023-05-10T11:37:53;4.55;;;3.08;;
37657;SDS011;23500;53.268;8.308;2023-05-10T11:40:18;4.97;;;3.17;;
37657;SDS011;23500;53.268;8.308;2023-05-10T11:42:46;5.18;;;2.90;;
37657;SDS011;23500;53.268;8.308;2023-05-10T11:45:11;5.97;;;3.25;;
37657;SDS011;23500;53.268;8.308;2023-05-10T11:47:38;5.38;;;3.05;;
37657;SDS011;23500;53.268;8.308;2023-05-10T11:50:04;7.22;;;3.03;;
37657;SDS011;23500;53.268;8.308;2023-05-10T11:52:35;4.70;;;3.28;;
37657;SDS011;23500;53.268;8.308;2023-05-10T11:55:02;4.47;;;3.17;;
37657;SDS011;23500;53.268;8.308;2023-05-10T11:57:28;4.78;;;2.88;;
37657;SDS011;23500;53.268;8.308;2023-05-10T11:59:56;5.55;;;3.20;;
37657;SDS011;23500;53.268;8.308;2023-05-10T12:02:22;4.75;;;3.03;;
37657;SDS011;23500;53.268;8.308;2023-05-10T12:04:48;5.97;;;3.03;;
37657;SDS011;23500;53.268;8.308;2023-05-10T12:07:15;4.13;;;2.92;;
37657;SDS011;23500;53.268;8.308;2023-05-10T12:09:42;4.05;;;2.78;;
37657;SDS011;23500;53.268;8.308;2023-05-10T12:12:09;4.80;;;2.80;;
37657;SDS011;23500;53.268;8.308;2023-05-10T12:14:36;5.10;;;2.75;;
37657;SDS011;23500;53.268;8.308;2023-05-10T12:17:02;3.83;;;2.50;;
37657;SDS011;23500;53.268;8.308;2023-05-10T12:19:27;4.88;;;2.88;;
37657;SDS011;23500;53.268;8.308;2023-05-10T12:21:53;5.13;;;2.63;;
37657;SDS011;23500;53.268;8.308;2023-05-10T12:24:19;4.63;;;2.92;;
37657;SDS011;23500;53.268;8.308;2023-05-10T12:26:46;5.35;;;2.88;;
37657;SDS011;23500;53.268;8.308;2023-05-10T12:29:14;4.25;;;2.60;;
37657;SDS011;23500;53.268;8.308;2023-05-10T12:31:53;5.40;;;2.70;;
37657;SDS011;23500;53.268;8.308;2023-05-10T12:34:23;3.50;;;2.65;;
37657;SDS011;23500;53.268;8.308;2023-05-10T12:36:52;5.05;;;2.70;;
37657;SDS011;23500;53.268;8.308;2023-05-10T12:39:18;3.08;;;2.40;;
37657;SDS011;23500;53.268;8.308;2023-05-10T12:41:44;4.57;;;2.70;;
37657;SDS011;23500;53.268;8.308;2023-05-10T12:44:10;4.25;;;2.60;;
37657;SDS011;23500;53.268;8.308;2023-05-10T12:46:35;4.18;;;2.67;;
37657;SDS011;23500;53.268;8.308;2023-05-10T12:49:01;4.22;;;2.50;;
37657;SDS011;23500;53.268;8.308;2023-05-10T12:51:26;4.25;;;2.65;;
37657;SDS011;23500;53.268;8.308;2023-05-10T12:53:52;4.25;;;2.50;;
37657;SDS011;23500;53.268;8.308;2023-05-10T12:56:18;4.97;;;2.90;;
37657;SDS011;23500;53.268;8.308;2023-05-10T12:58:43;5.47;;;2.70;;
37657;SDS011;23500;53.268;8.308;2023-05-10T13:01:13;4.03;;;2.58;;
37657;SDS011;23500;53.268;8.308;2023-05-10T13:03:39;4.10;;;2.75;;
37657;SDS011;23500;53.268;8.308;2023-05-10T13:06:04;3.67;;;2.20;;
37657;SDS011;23500;53.268;8.308;2023-05-10T13:08:31;3.90;;;2.40;;
37657;SDS011;23500;53.268;8.308;2023-05-10T13:10:59;3.53;;;2.40;;
37657;SDS011;23500;53.268;8.308;2023-05-10T13:13:25;3.92;;;2.47;;
37657;SDS011;23500;53.268;8.308;2023-05-10T13:15:51;4.72;;;2.38;;
37657;SDS011;23500;53.268;8.308;2023-05-10T13:18:17;3.08;;;2.47;;
37657;SDS011;23500;53.268;8.308;2023-05-10T13:20:42;4.18;;;2.35;;
37657;SDS011;23500;53.268;8.308;2023-05-10T13:23:09;5.55;;;2.63;;
37657;SDS011;23500;53.268;8.308;2023-05-10T13:25:35;5.93;;;2.53;;
37657;SDS011;23500;53.268;8.308;2023-05-10T13:28:01;2.65;;;2.10;;
37657;SDS011;23500;53.268;8.308;2023-05-10T13:30:27;3.00;;;2.47;;
37657;SDS011;23500;53.268;8.308;2023-05-10T13:32:53;3.50;;;2.35;;
37657;SDS011;23500;53.268;8.308;2023-05-10T13:35:19;3.03;;;2.25;;
37657;SDS011;23500;53.268;8.308;2023-05-10T13:37:45;3.63;;;2.55;;
37657;SDS011;23500;53.268;8.308;2023-05-10T13:40:11;4.78;;;2.20;;
37657;SDS011;23500;53.268;8.308;2023-05-10T13:42:37;3.97;;;2.28;;
37657;SDS011;23500;53.268;8.308;2023-05-10T13:45:03;4.45;;;2.40;;
37657;SDS011;23500;53.268;8.308;2023-05-10T13:47:29;2.85;;;1.92;;
37657;SDS011;23500;53.268;8.308;2023-05-10T13:49:55;3.60;;;2.08;;
37657;SDS011;23500;53.268;8.308;2023-05-10T13:52:22;3.05;;;2.30;;
37657;SDS011;23500;53.268;8.308;2023-05-10T13:54:48;2.67;;;1.90;;
37657;SDS011;23500;53.268;8.308;2023-05-10T13:57:13;2.25;;;2.03;;
37657;SDS011;23500;53.268;8.308;2023-05-10T13:59:41;3.20;;;2.13;;
37657;SDS011;23500;53.268;8.308;2023-05-10T14:02:07;3.63;;;2.35;;
37657;SDS011;23500;53.268;8.308;2023-05-10T14:04:32;2.83;;;2.22;;
37657;SDS011;23500;53.268;8.308;2023-05-10T14:07:00;4.00;;;2.38;;
37657;SDS011;23500;53.268;8.308;2023-05-10T14:09:26;2.58;;;2.08;;
37657;SDS011;23500;53.268;8.308;2023-05-10T14:11:51;4.03;;;2.28;;
37657;SDS011;23500;53.268;8.308;2023-05-10T14:14:17;3.97;;;2.33;;
37657;SDS011;23500;53.268;8.308;2023-05-10T14:16:43;2.42;;;2.22;;
37657;SDS011;23500;53.268;8.308;2023-05-10T14:19:09;2.80;;;2.10;;
37657;SDS011;23500;53.268;8.308;2023-05-10T14:21:36;2.85;;;1.95;;
37657;SDS011;23500;53.268;8.308;2023-05-10T14:24:01;2.83;;;1.90;;
37657;SDS011;23500;53.268;8.308;2023-05-10T14:26:28;2.90;;;2.10;;
37657;SDS011;23500;53.268;8.308;2023-05-10T14:28:54;2.63;;;2.17;;
37657;SDS011;23500;53.268;8.308;2023-05-10T14:31:20;2.13;;;1.67;;
37657;SDS011;23500;53.268;8.308;2023-05-10T14:33:48;2.42;;;1.90;;
37657;SDS011;23500;53.268;8.308;2023-05-10T14:36:14;2.10;;;1.90;;
37657;SDS011;23500;53.268;8.308;2023-05-10T14:38:40;2.90;;;1.95;;
37657;SDS011;23500;53.268;8.308;2023-05-10T14:41:06;2.63;;;1.88;;
37657;SDS011;23500;53.268;8.308;2023-05-10T14:43:31;2.97;;;1.80;;
37657;SDS011;23500;53.268;8.308;2023-05-10T14:45:57;2.92;;;1.98;;
37657;SDS011;23500;53.268;8.308;2023-05-10T14:48:23;2.92;;;2.05;;
37657;SDS011;23500;53.268;8.308;2023-05-10T14:50:49;2.75;;;2.10;;
37657;SDS011;23500;53.268;8.308;2023-05-10T14:53:15;3.15;;;1.70;;
37657;SDS011;23500;53.268;8.308;2023-05-10T14:55:41;2.85;;;2.05;;
37657;SDS011;23500;53.268;8.308;2023-05-10T14:58:07;3.10;;;1.77;;
37657;SDS011;23500;53.268;8.308;2023-05-10T15:00:32;2.58;;;2.08;;
37657;SDS011;23500;53.268;8.308;2023-05-10T15:02:58;2.72;;;1.90;;
37657;SDS011;23500;53.268;8.308;2023-05-10T15:05:24;2.90;;;2.13;;
37657;SDS011;23500;53.268;8.308;2023-05-10T15:07:50;2.85;;;1.63;;
37657;SDS011;23500;53.268;8.308;2023-05-10T15:10:15;2.95;;;1.90;;
37657;SDS011;23500;53.268;8.308;2023-05-10T15:12:41;2.65;;;1.70;;
37657;SDS011;23500;53.268;8.308;2023-05-10T15:15:07;2.38;;;1.90;;
37657;SDS011;23500;53.268;8.308;2023-05-10T15:17:33;2.40;;;1.90;;
37657;SDS011;23500;53.268;8.308;2023-05-10T15:19:58;2.83;;;1.63;;
37657;SDS011;23500;53.268;8.308;2023-05-10T15:22:25;2.28;;;1.60;;
37657;SDS011;23500;53.268;8.308;2023-05-10T15:24:53;2.78;;;1.60;;
37657;SDS011;23500;53.268;8.308;2023-05-10T15:27:18;3.50;;;1.70;;
37657;SDS011;23500;53.268;8.308;2023-05-10T15:29:44;2.08;;;1.50;;
37657;SDS011;23500;53.268;8.308;2023-05-10T15:32:09;2.10;;;1.52;;
37657;SDS011;23500;53.268;8.308;2023-05-10T15:34:35;2.80;;;1.83;;